sensor_id;sensor_type;location;lat;lon;timestamp;P1;durP1;ratioP1;P2;durP2;ratioP2
19167;SDS011;9716;53.114;18.040;2023-01-16T00:00:30;2.40;;;1.40;;
19167;SDS011;9716;53.114;18.040;2023-01-16T00:03:18;2.90;;;1.40;;
19167;SDS011;9716;53.114;18.040;2023-01-16T00:05:47;3.77;;;1.50;;
19167;SDS011;9716;53.114;18.040;2023-01-16T00:08:15;2.07;;;1.30;;
19167;SDS011;9716;53.114;18.040;2023-01-16T00:10:44;7.33;;;1.63;;
19167;SDS011;9716;53.114;18.040;2023-01-16T00:13:13;2.67;;;1.30;;
19167;SDS011;9716;53.114;18.040;2023-01-16T00:15:44;2.70;;;1.47;;
19167;SDS011;9716;53.114;18.040;2023-01-16T00:18:14;2.50;;;1.43;;
19167;SDS011;9716;53.114;18.040;2023-01-16T00:20:43;2.17;;;1.13;;
19167;SDS011;9716;53.114;18.040;2023-01-16T00:23:12;2.37;;;1.50;;
19167;SDS011;9716;53.114;18.040;2023-01-16T00:25:40;2.80;;;1.37;;
19167;SDS011;9716;53.114;18.040;2023-01-16T00:28:09;4.63;;;1.13;;
19167;SDS011;9716;53.114;18.040;2023-01-16T00:30:38;2.40;;;1.57;;
19167;SDS011;9716;53.114;18.040;2023-01-16T00:33:08;1.33;;;1.07;;
19167;SDS011;9716;53.114;18.040;2023-01-16T00:35:36;4.53;;;1.30;;
19167;SDS011;9716;53.114;18.040;2023-01-16T00:38:07;2.17;;;1.23;;
19167;SDS011;9716;53.114;18.040;2023-01-16T00:40:35;2.63;;;1.13;;
19167;SDS011;9716;53.114;18.040;2023-01-16T00:43:03;2.40;;;1.70;;
19167;SDS011;9716;53.114;18.040;2023-01-16T00:45:32;2.00;;;1.17;;
19167;SDS011;9716;53.114;18.040;2023-01-16T00:48:00;2.00;;;1.43;;
19167;SDS011;9716;53.114;18.040;2023-01-16T00:50:31;1.30;;;1.20;;
19167;SDS011;9716;53.114;18.040;2023-01-16T00:52:59;1.40;;;1.07;;
19167;SDS011;9716;53.114;18.040;2023-01-16T00:55:28;4.50;;;1.33;;
19167;SDS011;9716;53.114;18.040;2023-01-16T00:57:56;1.60;;;1.50;;
19167;SDS011;9716;53.114;18.040;2023-01-16T01:00:24;7.40;;;1.63;;
19167;SDS011;9716;53.114;18.040;2023-01-16T01:02:53;3.00;;;1.50;;
19167;SDS011;9716;53.114;18.040;2023-01-16T01:05:22;3.90;;;1.40;;
19167;SDS011;9716;53.114;18.040;2023-01-16T01:07:52;1.30;;;1.17;;
19167;SDS011;9716;53.114;18.040;2023-01-16T01:10:20;1.67;;;1.00;;
19167;SDS011;9716;53.114;18.040;2023-01-16T01:12:52;3.00;;;1.50;;
19167;SDS011;9716;53.114;18.040;2023-01-16T01:15:21;2.53;;;1.33;;
19167;SDS011;9716;53.114;18.040;2023-01-16T01:17:50;1.60;;;1.30;;
19167;SDS011;9716;53.114;18.040;2023-01-16T01:20:18;1.93;;;1.27;;
19167;SDS011;9716;53.114;18.040;2023-01-16T01:22:46;6.27;;;1.27;;
19167;SDS011;9716;53.114;18.040;2023-01-16T01:25:16;4.80;;;1.40;;
19167;SDS011;9716;53.114;18.040;2023-01-16T01:27:45;1.90;;;1.60;;
19167;SDS011;9716;53.114;18.040;2023-01-16T01:30:13;1.27;;;1.07;;
19167;SDS011;9716;53.114;18.040;2023-01-16T01:32:42;2.80;;;1.23;;
19167;SDS011;9716;53.114;18.040;2023-01-16T01:35:10;2.60;;;1.60;;
19167;SDS011;9716;53.114;18.040;2023-01-16T01:37:39;3.13;;;1.47;;
19167;SDS011;9716;53.114;18.040;2023-01-16T01:40:08;2.80;;;1.30;;
19167;SDS011;9716;53.114;18.040;2023-01-16T01:42:38;2.87;;;1.33;;
19167;SDS011;9716;53.114;18.040;2023-01-16T01:45:14;1.93;;;1.23;;
19167;SDS011;9716;53.114;18.040;2023-01-16T01:47:47;2.57;;;1.53;;
19167;SDS011;9716;53.114;18.040;2023-01-16T01:50:35;3.23;;;1.43;;
19167;SDS011;9716;53.114;18.040;2023-01-16T01:53:08;1.77;;;1.30;;
19167;SDS011;9716;53.114;18.040;2023-01-16T01:55:39;1.57;;;1.07;;
19167;SDS011;9716;53.114;18.040;2023-01-16T01:58:14;1.37;;;1.27;;
19167;SDS011;9716;53.114;18.040;2023-01-16T02:00:48;0.93;;;0.93;;
19167;SDS011;9716;53.114;18.040;2023-01-16T02:03:21;3.63;;;1.30;;
19167;SDS011;9716;53.114;18.040;2023-01-16T02:05:54;1.43;;;1.17;;
19167;SDS011;9716;53.114;18.040;2023-01-16T02:08:26;1.97;;;1.10;;
19167;SDS011;9716;53.114;18.040;2023-01-16T02:10:59;1.20;;;1.10;;
19167;SDS011;9716;53.114;18.040;2023-01-16T02:13:34;2.07;;;1.10;;
19167;SDS011;9716;53.114;18.040;2023-01-16T02:16:05;1.30;;;1.00;;
19167;SDS011;9716;53.114;18.040;2023-01-16T02:18:51;1.23;;;1.00;;
19167;SDS011;9716;53.114;18.040;2023-01-16T02:21:44;1.80;;;1.30;;
19167;SDS011;9716;53.114;18.040;2023-01-16T02:24:55;1.43;;;1.17;;
19167;SDS011;9716;53.114;18.040;2023-01-16T02:27:51;2.07;;;1.20;;
19167;SDS011;9716;53.114;18.040;2023-01-16T02:30:48;2.90;;;1.40;;
19167;SDS011;9716;53.114;18.040;2023-01-16T02:33:32;0.87;;;0.87;;
19167;SDS011;9716;53.114;18.040;2023-01-16T02:36:16;4.83;;;1.40;;
19167;SDS011;9716;53.114;18.040;2023-01-16T02:38:53;1.10;;;1.00;;
19167;SDS011;9716;53.114;18.040;2023-01-16T02:41:31;0.93;;;0.90;;
19167;SDS011;9716;53.114;18.040;2023-01-16T02:44:09;1.03;;;0.90;;
19167;SDS011;9716;53.114;18.040;2023-01-16T02:46:55;1.20;;;1.10;;
19167;SDS011;9716;53.114;18.040;2023-01-16T02:49:37;2.10;;;1.23;;
19167;SDS011;9716;53.114;18.040;2023-01-16T02:52:10;1.73;;;1.40;;
19167;SDS011;9716;53.114;18.040;2023-01-16T02:54:42;2.07;;;1.23;;
19167;SDS011;9716;53.114;18.040;2023-01-16T02:57:16;0.87;;;0.87;;
19167;SDS011;9716;53.114;18.040;2023-01-16T02:59:46;6.70;;;1.53;;
19167;SDS011;9716;53.114;18.040;2023-01-16T03:02:17;2.63;;;1.30;;
19167;SDS011;9716;53.114;18.040;2023-01-16T03:04:46;2.83;;;1.20;;
19167;SDS011;9716;53.114;18.040;2023-01-16T03:10:18;4.63;;;1.50;;
19167;SDS011;9716;53.114;18.040;2023-01-16T03:13:00;1.50;;;1.00;;
19167;SDS011;9716;53.114;18.040;2023-01-16T03:15:39;1.10;;;1.00;;
19167;SDS011;9716;53.114;18.040;2023-01-16T03:18:19;1.83;;;1.00;;
19167;SDS011;9716;53.114;18.040;2023-01-16T03:20:57;4.33;;;1.30;;
19167;SDS011;9716;53.114;18.040;2023-01-16T03:23:31;2.97;;;1.23;;
19167;SDS011;9716;53.114;18.040;2023-01-16T03:26:16;2.40;;;1.40;;
19167;SDS011;9716;53.114;18.040;2023-01-16T03:28:53;2.53;;;1.30;;
19167;SDS011;9716;53.114;18.040;2023-01-16T03:31:31;2.40;;;1.30;;
19167;SDS011;9716;53.114;18.040;2023-01-16T03:34:11;1.67;;;1.20;;
19167;SDS011;9716;53.114;18.040;2023-01-16T03:36:49;2.10;;;1.43;;
19167;SDS011;9716;53.114;18.040;2023-01-16T03:39:22;1.47;;;1.33;;
19167;SDS011;9716;53.114;18.040;2023-01-16T03:41:54;1.37;;;1.13;;
19167;SDS011;9716;53.114;18.040;2023-01-16T03:44:33;1.20;;;1.10;;
19167;SDS011;9716;53.114;18.040;2023-01-16T03:47:05;2.07;;;1.60;;
19167;SDS011;9716;53.114;18.040;2023-01-16T03:49:39;3.97;;;1.10;;
19167;SDS011;9716;53.114;18.040;2023-01-16T03:52:12;1.90;;;1.10;;
19167;SDS011;9716;53.114;18.040;2023-01-16T03:54:46;1.03;;;1.00;;
19167;SDS011;9716;53.114;18.040;2023-01-16T03:57:21;4.20;;;1.40;;
19167;SDS011;9716;53.114;18.040;2023-01-16T03:59:54;1.03;;;0.97;;
19167;SDS011;9716;53.114;18.040;2023-01-16T04:02:23;4.03;;;1.50;;
19167;SDS011;9716;53.114;18.040;2023-01-16T04:04:58;2.37;;;1.13;;
19167;SDS011;9716;53.114;18.040;2023-01-16T04:07:32;2.17;;;1.33;;
19167;SDS011;9716;53.114;18.040;2023-01-16T04:10:05;2.40;;;1.20;;
19167;SDS011;9716;53.114;18.040;2023-01-16T04:12:37;1.27;;;0.93;;
19167;SDS011;9716;53.114;18.040;2023-01-16T04:15:10;1.00;;;0.97;;
19167;SDS011;9716;53.114;18.040;2023-01-16T04:17:39;2.60;;;0.90;;
19167;SDS011;9716;53.114;18.040;2023-01-16T04:20:10;1.30;;;1.20;;
19167;SDS011;9716;53.114;18.040;2023-01-16T04:22:39;2.90;;;1.30;;
19167;SDS011;9716;53.114;18.040;2023-01-16T04:25:09;2.00;;;1.27;;
19167;SDS011;9716;53.114;18.040;2023-01-16T04:27:37;2.40;;;1.60;;
19167;SDS011;9716;53.114;18.040;2023-01-16T04:30:06;1.40;;;1.30;;
19167;SDS011;9716;53.114;18.040;2023-01-16T04:32:36;1.17;;;1.00;;
19167;SDS011;9716;53.114;18.040;2023-01-16T04:35:05;1.70;;;1.13;;
19167;SDS011;9716;53.114;18.040;2023-01-16T04:37:35;2.37;;;1.20;;
19167;SDS011;9716;53.114;18.040;2023-01-16T04:40:04;1.43;;;1.33;;
19167;SDS011;9716;53.114;18.040;2023-01-16T04:42:35;4.13;;;1.63;;
19167;SDS011;9716;53.114;18.040;2023-01-16T04:45:04;4.30;;;1.20;;
19167;SDS011;9716;53.114;18.040;2023-01-16T04:47:32;1.40;;;1.23;;
19167;SDS011;9716;53.114;18.040;2023-01-16T04:50:01;2.00;;;1.30;;
19167;SDS011;9716;53.114;18.040;2023-01-16T04:52:30;6.20;;;1.30;;
19167;SDS011;9716;53.114;18.040;2023-01-16T04:54:59;2.93;;;1.60;;
19167;SDS011;9716;53.114;18.040;2023-01-16T04:57:28;2.30;;;1.47;;
19167;SDS011;9716;53.114;18.040;2023-01-16T04:59:56;1.50;;;1.30;;
19167;SDS011;9716;53.114;18.040;2023-01-16T05:02:25;1.67;;;1.30;;
19167;SDS011;9716;53.114;18.040;2023-01-16T05:04:53;5.30;;;1.50;;
19167;SDS011;9716;53.114;18.040;2023-01-16T05:07:21;1.67;;;1.20;;
19167;SDS011;9716;53.114;18.040;2023-01-16T05:09:53;1.50;;;1.23;;
19167;SDS011;9716;53.114;18.040;2023-01-16T05:12:22;6.07;;;1.43;;
19167;SDS011;9716;53.114;18.040;2023-01-16T05:14:51;0.93;;;0.90;;
19167;SDS011;9716;53.114;18.040;2023-01-16T05:17:19;5.60;;;2.00;;
19167;SDS011;9716;53.114;18.040;2023-01-16T05:19:51;4.00;;;1.20;;
19167;SDS011;9716;53.114;18.040;2023-01-16T05:22:20;4.47;;;1.63;;
19167;SDS011;9716;53.114;18.040;2023-01-16T05:24:48;1.83;;;1.40;;
19167;SDS011;9716;53.114;18.040;2023-01-16T05:27:16;1.30;;;1.20;;
19167;SDS011;9716;53.114;18.040;2023-01-16T05:29:46;2.77;;;1.67;;
19167;SDS011;9716;53.114;18.040;2023-01-16T05:32:14;2.77;;;1.30;;
19167;SDS011;9716;53.114;18.040;2023-01-16T05:34:43;2.33;;;1.60;;
19167;SDS011;9716;53.114;18.040;2023-01-16T05:37:11;2.63;;;2.40;;
19167;SDS011;9716;53.114;18.040;2023-01-16T05:39:39;4.47;;;2.63;;
19167;SDS011;9716;53.114;18.040;2023-01-16T05:42:08;3.90;;;2.67;;
19167;SDS011;9716;53.114;18.040;2023-01-16T05:44:49;3.03;;;2.33;;
19167;SDS011;9716;53.114;18.040;2023-01-16T05:47:18;4.63;;;2.63;;
19167;SDS011;9716;53.114;18.040;2023-01-16T05:49:47;7.17;;;2.77;;
19167;SDS011;9716;53.114;18.040;2023-01-16T05:52:15;4.63;;;2.83;;
19167;SDS011;9716;53.114;18.040;2023-01-16T05:54:44;4.60;;;2.57;;
19167;SDS011;9716;53.114;18.040;2023-01-16T05:57:12;3.77;;;2.73;;
19167;SDS011;9716;53.114;18.040;2023-01-16T05:59:41;3.07;;;2.10;;
19167;SDS011;9716;53.114;18.040;2023-01-16T06:02:13;3.97;;;2.17;;
19167;SDS011;9716;53.114;18.040;2023-01-16T06:04:42;2.33;;;2.13;;
19167;SDS011;9716;53.114;18.040;2023-01-16T06:07:10;2.73;;;2.13;;
19167;SDS011;9716;53.114;18.040;2023-01-16T06:09:39;7.73;;;2.30;;
19167;SDS011;9716;53.114;18.040;2023-01-16T06:12:10;4.30;;;1.90;;
19167;SDS011;9716;53.114;18.040;2023-01-16T06:14:42;4.97;;;2.17;;
19167;SDS011;9716;53.114;18.040;2023-01-16T06:17:15;3.60;;;2.00;;
19167;SDS011;9716;53.114;18.040;2023-01-16T06:19:45;3.57;;;1.97;;
19167;SDS011;9716;53.114;18.040;2023-01-16T06:22:13;4.17;;;1.70;;
19167;SDS011;9716;53.114;18.040;2023-01-16T06:24:42;1.93;;;1.73;;
19167;SDS011;9716;53.114;18.040;2023-01-16T06:27:10;2.40;;;1.73;;
19167;SDS011;9716;53.114;18.040;2023-01-16T06:29:39;3.10;;;1.87;;
19167;SDS011;9716;53.114;18.040;2023-01-16T06:32:08;4.53;;;1.47;;
19167;SDS011;9716;53.114;18.040;2023-01-16T06:34:38;2.50;;;1.97;;
19167;SDS011;9716;53.114;18.040;2023-01-16T06:37:06;7.97;;;2.20;;
19167;SDS011;9716;53.114;18.040;2023-01-16T06:39:35;2.20;;;1.60;;
19167;SDS011;9716;53.114;18.040;2023-01-16T06:42:03;2.43;;;1.87;;
19167;SDS011;9716;53.114;18.040;2023-01-16T06:44:32;2.90;;;2.00;;
19167;SDS011;9716;53.114;18.040;2023-01-16T06:47:01;7.37;;;2.23;;
19167;SDS011;9716;53.114;18.040;2023-01-16T06:49:30;7.17;;;2.00;;
19167;SDS011;9716;53.114;18.040;2023-01-16T06:51:59;4.53;;;2.17;;
19167;SDS011;9716;53.114;18.040;2023-01-16T06:54:28;4.10;;;1.77;;
19167;SDS011;9716;53.114;18.040;2023-01-16T06:56:56;7.13;;;2.27;;
19167;SDS011;9716;53.114;18.040;2023-01-16T06:59:25;3.20;;;1.63;;
19167;SDS011;9716;53.114;18.040;2023-01-16T07:01:54;5.00;;;1.80;;
19167;SDS011;9716;53.114;18.040;2023-01-16T07:04:22;1.37;;;1.20;;
19167;SDS011;9716;53.114;18.040;2023-01-16T07:06:51;5.30;;;1.53;;
19167;SDS011;9716;53.114;18.040;2023-01-16T07:09:21;3.73;;;2.30;;
19167;SDS011;9716;53.114;18.040;2023-01-16T07:11:54;3.47;;;1.70;;
19167;SDS011;9716;53.114;18.040;2023-01-16T07:14:23;3.73;;;1.80;;
19167;SDS011;9716;53.114;18.040;2023-01-16T07:17:09;4.47;;;1.90;;
19167;SDS011;9716;53.114;18.040;2023-01-16T07:19:57;1.57;;;1.47;;
19167;SDS011;9716;53.114;18.040;2023-01-16T07:22:43;3.17;;;2.20;;
19167;SDS011;9716;53.114;18.040;2023-01-16T07:25:15;3.83;;;2.13;;
19167;SDS011;9716;53.114;18.040;2023-01-16T07:27:46;1.63;;;1.37;;
19167;SDS011;9716;53.114;18.040;2023-01-16T07:30:17;3.03;;;1.70;;
19167;SDS011;9716;53.114;18.040;2023-01-16T07:32:47;3.17;;;1.90;;
19167;SDS011;9716;53.114;18.040;2023-01-16T07:35:16;5.43;;;1.80;;
19167;SDS011;9716;53.114;18.040;2023-01-16T07:37:44;2.43;;;1.70;;
19167;SDS011;9716;53.114;18.040;2023-01-16T07:40:14;5.10;;;2.17;;
19167;SDS011;9716;53.114;18.040;2023-01-16T07:42:43;5.33;;;2.13;;
19167;SDS011;9716;53.114;18.040;2023-01-16T07:45:11;7.83;;;2.10;;
19167;SDS011;9716;53.114;18.040;2023-01-16T07:47:40;4.50;;;2.57;;
19167;SDS011;9716;53.114;18.040;2023-01-16T07:50:08;2.47;;;2.00;;
19167;SDS011;9716;53.114;18.040;2023-01-16T07:52:37;7.67;;;1.90;;
19167;SDS011;9716;53.114;18.040;2023-01-16T07:55:05;2.37;;;1.83;;
19167;SDS011;9716;53.114;18.040;2023-01-16T07:57:36;5.00;;;2.17;;
19167;SDS011;9716;53.114;18.040;2023-01-16T08:00:06;3.07;;;1.93;;
19167;SDS011;9716;53.114;18.040;2023-01-16T08:02:36;3.77;;;1.80;;
19167;SDS011;9716;53.114;18.040;2023-01-16T08:05:06;2.50;;;1.90;;
19167;SDS011;9716;53.114;18.040;2023-01-16T08:07:35;4.73;;;2.40;;
19167;SDS011;9716;53.114;18.040;2023-01-16T08:10:04;3.73;;;1.90;;
19167;SDS011;9716;53.114;18.040;2023-01-16T08:12:33;3.30;;;2.37;;
19167;SDS011;9716;53.114;18.040;2023-01-16T08:15:03;7.73;;;2.47;;
19167;SDS011;9716;53.114;18.040;2023-01-16T08:17:37;9.33;;;2.47;;
19167;SDS011;9716;53.114;18.040;2023-01-16T08:20:07;7.73;;;2.90;;
19167;SDS011;9716;53.114;18.040;2023-01-16T08:22:41;4.83;;;2.27;;
19167;SDS011;9716;53.114;18.040;2023-01-16T08:25:10;3.57;;;2.23;;
19167;SDS011;9716;53.114;18.040;2023-01-16T08:27:39;3.77;;;2.17;;
19167;SDS011;9716;53.114;18.040;2023-01-16T08:30:11;9.93;;;2.60;;
19167;SDS011;9716;53.114;18.040;2023-01-16T08:32:40;2.83;;;1.80;;
19167;SDS011;9716;53.114;18.040;2023-01-16T08:35:09;2.57;;;2.20;;
19167;SDS011;9716;53.114;18.040;2023-01-16T08:37:38;6.83;;;2.50;;
19167;SDS011;9716;53.114;18.040;2023-01-16T08:40:07;5.80;;;2.10;;
19167;SDS011;9716;53.114;18.040;2023-01-16T08:42:36;3.00;;;2.23;;
19167;SDS011;9716;53.114;18.040;2023-01-16T08:45:23;4.83;;;2.23;;
19167;SDS011;9716;53.114;18.040;2023-01-16T08:48:09;4.87;;;2.63;;
19167;SDS011;9716;53.114;18.040;2023-01-16T08:50:56;6.87;;;2.93;;
19167;SDS011;9716;53.114;18.040;2023-01-16T08:53:41;4.10;;;2.23;;
19167;SDS011;9716;53.114;18.040;2023-01-16T08:56:10;8.13;;;2.53;;
19167;SDS011;9716;53.114;18.040;2023-01-16T08:58:38;3.87;;;2.30;;
19167;SDS011;9716;53.114;18.040;2023-01-16T09:01:08;5.10;;;2.50;;
19167;SDS011;9716;53.114;18.040;2023-01-16T09:03:37;7.50;;;2.30;;
19167;SDS011;9716;53.114;18.040;2023-01-16T09:06:05;3.87;;;2.17;;
19167;SDS011;9716;53.114;18.040;2023-01-16T09:08:34;4.23;;;2.43;;
19167;SDS011;9716;53.114;18.040;2023-01-16T09:11:03;5.83;;;2.30;;
19167;SDS011;9716;53.114;18.040;2023-01-16T09:13:49;3.63;;;2.17;;
19167;SDS011;9716;53.114;18.040;2023-01-16T09:16:19;7.10;;;2.47;;
19167;SDS011;9716;53.114;18.040;2023-01-16T09:18:50;5.47;;;2.83;;
19167;SDS011;9716;53.114;18.040;2023-01-16T09:21:19;2.70;;;2.03;;
19167;SDS011;9716;53.114;18.040;2023-01-16T09:23:50;3.40;;;2.47;;
19167;SDS011;9716;53.114;18.040;2023-01-16T09:26:19;4.30;;;2.50;;
19167;SDS011;9716;53.114;18.040;2023-01-16T09:28:47;4.10;;;2.90;;
19167;SDS011;9716;53.114;18.040;2023-01-16T09:31:16;5.23;;;2.90;;
19167;SDS011;9716;53.114;18.040;2023-01-16T09:33:46;7.80;;;3.13;;
19167;SDS011;9716;53.114;18.040;2023-01-16T09:36:16;3.23;;;2.20;;
19167;SDS011;9716;53.114;18.040;2023-01-16T09:38:44;4.67;;;2.83;;
19167;SDS011;9716;53.114;18.040;2023-01-16T09:41:14;5.53;;;2.93;;
19167;SDS011;9716;53.114;18.040;2023-01-16T09:44:05;6.40;;;2.73;;
19167;SDS011;9716;53.114;18.040;2023-01-16T09:46:36;4.73;;;2.70;;
19167;SDS011;9716;53.114;18.040;2023-01-16T09:49:12;9.33;;;3.40;;
19167;SDS011;9716;53.114;18.040;2023-01-16T09:51:47;11.57;;;4.63;;
19167;SDS011;9716;53.114;18.040;2023-01-16T09:54:39;4.90;;;2.93;;
19167;SDS011;9716;53.114;18.040;2023-01-16T09:57:30;6.83;;;2.93;;
19167;SDS011;9716;53.114;18.040;2023-01-16T10:00:18;7.90;;;4.07;;
19167;SDS011;9716;53.114;18.040;2023-01-16T10:02:50;7.80;;;3.33;;
19167;SDS011;9716;53.114;18.040;2023-01-16T10:05:20;4.40;;;2.90;;
19167;SDS011;9716;53.114;18.040;2023-01-16T10:07:54;7.87;;;4.00;;
19167;SDS011;9716;53.114;18.040;2023-01-16T10:10:32;7.43;;;3.20;;
19167;SDS011;9716;53.114;18.040;2023-01-16T10:13:13;8.43;;;3.07;;
19167;SDS011;9716;53.114;18.040;2023-01-16T10:15:51;4.97;;;2.47;;
19167;SDS011;9716;53.114;18.040;2023-01-16T10:18:32;4.67;;;2.80;;
19167;SDS011;9716;53.114;18.040;2023-01-16T10:21:11;8.00;;;3.90;;
19167;SDS011;9716;53.114;18.040;2023-01-16T10:24:05;4.67;;;2.80;;
19167;SDS011;9716;53.114;18.040;2023-01-16T10:26:43;5.33;;;3.10;;
19167;SDS011;9716;53.114;18.040;2023-01-16T10:29:23;4.30;;;2.70;;
19167;SDS011;9716;53.114;18.040;2023-01-16T10:31:57;6.60;;;2.90;;
19167;SDS011;9716;53.114;18.040;2023-01-16T10:34:31;4.57;;;3.20;;
19167;SDS011;9716;53.114;18.040;2023-01-16T10:37:04;3.13;;;2.37;;
19167;SDS011;9716;53.114;18.040;2023-01-16T10:39:35;6.03;;;3.27;;
19167;SDS011;9716;53.114;18.040;2023-01-16T10:42:09;5.37;;;3.07;;
19167;SDS011;9716;53.114;18.040;2023-01-16T10:44:58;4.30;;;2.50;;
19167;SDS011;9716;53.114;18.040;2023-01-16T10:47:57;3.87;;;2.47;;
19167;SDS011;9716;53.114;18.040;2023-01-16T10:50:43;7.27;;;3.23;;
19167;SDS011;9716;53.114;18.040;2023-01-16T10:53:14;6.27;;;3.30;;
19167;SDS011;9716;53.114;18.040;2023-01-16T10:55:43;7.00;;;3.23;;
19167;SDS011;9716;53.114;18.040;2023-01-16T10:58:21;5.67;;;3.07;;
19167;SDS011;9716;53.114;18.040;2023-01-16T11:00:55;7.77;;;3.63;;
19167;SDS011;9716;53.114;18.040;2023-01-16T11:03:31;6.27;;;3.03;;
19167;SDS011;9716;53.114;18.040;2023-01-16T11:06:05;8.03;;;3.57;;
19167;SDS011;9716;53.114;18.040;2023-01-16T11:08:37;5.37;;;3.40;;
19167;SDS011;9716;53.114;18.040;2023-01-16T11:11:09;5.23;;;3.20;;
19167;SDS011;9716;53.114;18.040;2023-01-16T11:14:03;5.03;;;3.20;;
19167;SDS011;9716;53.114;18.040;2023-01-16T11:17:10;10.87;;;3.10;;
19167;SDS011;9716;53.114;18.040;2023-01-16T11:20:11;7.90;;;3.60;;
19167;SDS011;9716;53.114;18.040;2023-01-16T11:22:44;8.10;;;3.23;;
19167;SDS011;9716;53.114;18.040;2023-01-16T11:25:17;8.47;;;3.70;;
19167;SDS011;9716;53.114;18.040;2023-01-16T11:27:47;7.30;;;3.63;;
19167;SDS011;9716;53.114;18.040;2023-01-16T11:30:19;6.27;;;3.33;;
19167;SDS011;9716;53.114;18.040;2023-01-16T11:32:49;8.07;;;3.83;;
19167;SDS011;9716;53.114;18.040;2023-01-16T11:35:25;4.97;;;3.27;;
19167;SDS011;9716;53.114;18.040;2023-01-16T11:38:02;6.00;;;3.67;;
19167;SDS011;9716;53.114;18.040;2023-01-16T11:40:35;6.93;;;3.40;;
19167;SDS011;9716;53.114;18.040;2023-01-16T11:43:12;5.83;;;3.37;;
19167;SDS011;9716;53.114;18.040;2023-01-16T11:45:59;6.63;;;3.33;;
19167;SDS011;9716;53.114;18.040;2023-01-16T11:48:39;11.50;;;4.30;;
19167;SDS011;9716;53.114;18.040;2023-01-16T11:51:16;9.83;;;3.53;;
19167;SDS011;9716;53.114;18.040;2023-01-16T11:53:48;9.03;;;3.40;;
19167;SDS011;9716;53.114;18.040;2023-01-16T11:56:23;7.53;;;3.97;;
19167;SDS011;9716;53.114;18.040;2023-01-16T11:59:29;5.97;;;3.57;;
19167;SDS011;9716;53.114;18.040;2023-01-16T12:02:12;8.23;;;3.47;;
19167;SDS011;9716;53.114;18.040;2023-01-16T12:04:50;7.23;;;3.23;;
19167;SDS011;9716;53.114;18.040;2023-01-16T12:07:45;5.67;;;3.07;;
19167;SDS011;9716;53.114;18.040;2023-01-16T12:10:25;9.83;;;3.50;;
19167;SDS011;9716;53.114;18.040;2023-01-16T12:13:04;10.23;;;3.83;;
19167;SDS011;9716;53.114;18.040;2023-01-16T12:15:56;6.70;;;3.07;;
19167;SDS011;9716;53.114;18.040;2023-01-16T12:18:34;6.73;;;3.17;;
19167;SDS011;9716;53.114;18.040;2023-01-16T12:21:13;6.00;;;2.90;;
19167;SDS011;9716;53.114;18.040;2023-01-16T12:23:57;5.90;;;3.27;;
19167;SDS011;9716;53.114;18.040;2023-01-16T12:26:34;5.73;;;3.27;;
19167;SDS011;9716;53.114;18.040;2023-01-16T12:29:15;6.47;;;2.87;;
19167;SDS011;9716;53.114;18.040;2023-01-16T12:32:04;10.33;;;2.93;;
19167;SDS011;9716;53.114;18.040;2023-01-16T12:34:50;6.00;;;3.07;;
19167;SDS011;9716;53.114;18.040;2023-01-16T12:37:36;13.33;;;6.17;;
19167;SDS011;9716;53.114;18.040;2023-01-16T12:40:28;10.47;;;5.70;;
19167;SDS011;9716;53.114;18.040;2023-01-16T12:43:04;14.87;;;6.40;;
19167;SDS011;9716;53.114;18.040;2023-01-16T12:45:49;14.37;;;6.13;;
19167;SDS011;9716;53.114;18.040;2023-01-16T12:48:32;10.93;;;4.83;;
19167;SDS011;9716;53.114;18.040;2023-01-16T12:51:19;12.77;;;5.57;;
19167;SDS011;9716;53.114;18.040;2023-01-16T12:54:06;14.63;;;4.80;;
19167;SDS011;9716;53.114;18.040;2023-01-16T12:56:57;12.93;;;5.93;;
19167;SDS011;9716;53.114;18.040;2023-01-16T12:59:35;19.80;;;6.63;;
19167;SDS011;9716;53.114;18.040;2023-01-16T13:02:13;10.63;;;5.47;;
19167;SDS011;9716;53.114;18.040;2023-01-16T13:04:50;12.87;;;5.77;;
19167;SDS011;9716;53.114;18.040;2023-01-16T13:07:23;24.40;;;6.43;;
19167;SDS011;9716;53.114;18.040;2023-01-16T13:09:57;18.07;;;5.60;;
19167;SDS011;9716;53.114;18.040;2023-01-16T13:12:44;16.23;;;6.17;;
19167;SDS011;9716;53.114;18.040;2023-01-16T13:15:32;16.37;;;5.70;;
19167;SDS011;9716;53.114;18.040;2023-01-16T13:18:07;18.13;;;5.37;;
19167;SDS011;9716;53.114;18.040;2023-01-16T13:20:45;19.77;;;4.60;;
19167;SDS011;9716;53.114;18.040;2023-01-16T13:23:16;8.47;;;4.00;;
19167;SDS011;9716;53.114;18.040;2023-01-16T13:25:49;12.00;;;4.70;;
19167;SDS011;9716;53.114;18.040;2023-01-16T13:28:25;11.83;;;4.67;;
19167;SDS011;9716;53.114;18.040;2023-01-16T13:30:58;14.73;;;4.87;;
19167;SDS011;9716;53.114;18.040;2023-01-16T13:33:32;12.20;;;4.97;;
19167;SDS011;9716;53.114;18.040;2023-01-16T13:36:08;6.40;;;4.47;;
19167;SDS011;9716;53.114;18.040;2023-01-16T13:38:55;7.43;;;4.23;;
19167;SDS011;9716;53.114;18.040;2023-01-16T13:41:33;9.77;;;3.87;;
19167;SDS011;9716;53.114;18.040;2023-01-16T13:44:07;11.53;;;4.23;;
19167;SDS011;9716;53.114;18.040;2023-01-16T13:47:01;5.73;;;4.17;;
19167;SDS011;9716;53.114;18.040;2023-01-16T13:49:33;12.60;;;5.13;;
19167;SDS011;9716;53.114;18.040;2023-01-16T13:52:03;15.90;;;4.43;;
19167;SDS011;9716;53.114;18.040;2023-01-16T13:54:35;9.17;;;4.33;;
19167;SDS011;9716;53.114;18.040;2023-01-16T13:57:07;6.07;;;4.03;;
19167;SDS011;9716;53.114;18.040;2023-01-16T13:59:41;8.17;;;4.07;;
19167;SDS011;9716;53.114;18.040;2023-01-16T14:05:17;7.97;;;4.57;;
19167;SDS011;9716;53.114;18.040;2023-01-16T14:08:18;15.10;;;4.93;;
19167;SDS011;9716;53.114;18.040;2023-01-16T14:11:35;10.90;;;4.33;;
19167;SDS011;9716;53.114;18.040;2023-01-16T14:14:19;10.87;;;4.33;;
19167;SDS011;9716;53.114;18.040;2023-01-16T14:17:30;12.93;;;5.20;;
19167;SDS011;9716;53.114;18.040;2023-01-16T14:20:35;10.37;;;4.37;;
19167;SDS011;9716;53.114;18.040;2023-01-16T14:23:16;8.40;;;4.57;;
19167;SDS011;9716;53.114;18.040;2023-01-16T14:26:05;8.33;;;5.10;;
19167;SDS011;9716;53.114;18.040;2023-01-16T14:28:35;11.67;;;4.83;;
19167;SDS011;9716;53.114;18.040;2023-01-16T14:31:18;9.70;;;5.57;;
19167;SDS011;9716;53.114;18.040;2023-01-16T14:33:49;11.37;;;5.17;;
19167;SDS011;9716;53.114;18.040;2023-01-16T14:36:22;10.43;;;4.70;;
19167;SDS011;9716;53.114;18.040;2023-01-16T14:38:52;10.30;;;5.63;;
19167;SDS011;9716;53.114;18.040;2023-01-16T14:41:24;8.10;;;5.10;;
19167;SDS011;9716;53.114;18.040;2023-01-16T14:44:18;15.93;;;5.60;;
19167;SDS011;9716;53.114;18.040;2023-01-16T14:47:09;10.40;;;4.87;;
19167;SDS011;9716;53.114;18.040;2023-01-16T14:50:09;8.97;;;5.30;;
19167;SDS011;9716;53.114;18.040;2023-01-16T14:56:07;15.70;;;6.90;;
19167;SDS011;9716;53.114;18.040;2023-01-16T14:58:52;16.97;;;5.97;;
19167;SDS011;9716;53.114;18.040;2023-01-16T15:01:26;19.37;;;7.73;;
19167;SDS011;9716;53.114;18.040;2023-01-16T15:04:14;16.03;;;6.93;;
19167;SDS011;9716;53.114;18.040;2023-01-16T15:06:46;15.77;;;7.80;;
19167;SDS011;9716;53.114;18.040;2023-01-16T15:09:19;12.93;;;6.97;;
19167;SDS011;9716;53.114;18.040;2023-01-16T15:11:50;19.23;;;7.37;;
19167;SDS011;9716;53.114;18.040;2023-01-16T15:14:23;14.00;;;6.97;;
19167;SDS011;9716;53.114;18.040;2023-01-16T15:16:57;18.10;;;6.47;;
19167;SDS011;9716;53.114;18.040;2023-01-16T15:19:58;13.07;;;7.37;;
19167;SDS011;9716;53.114;18.040;2023-01-16T15:23:00;20.97;;;6.70;;
19167;SDS011;9716;53.114;18.040;2023-01-16T15:28:46;25.73;;;8.17;;
19167;SDS011;9716;53.114;18.040;2023-01-16T15:31:27;32.43;;;8.43;;
19167;SDS011;9716;53.114;18.040;2023-01-16T15:34:01;25.00;;;7.77;;
19167;SDS011;9716;53.114;18.040;2023-01-16T15:36:34;20.17;;;7.63;;
19167;SDS011;9716;53.114;18.040;2023-01-16T15:39:21;21.70;;;7.97;;
19167;SDS011;9716;53.114;18.040;2023-01-16T15:41:54;26.50;;;8.13;;
19167;SDS011;9716;53.114;18.040;2023-01-16T15:44:46;22.67;;;7.93;;